createdAt,value
2022-08-28T00:00:33.065Z,64.68
2022-08-28T00:16:15.448Z,64.59
2022-08-28T00:31:57.655Z,64.51
2022-08-28T00:47:39.863Z,64.44
2022-08-28T01:03:21.979Z,64.38
2022-08-28T01:19:04.599Z,64.33
2022-08-28T01:34:47.249Z,64.29
2022-08-28T01:50:30.130Z,64.25
2022-08-28T02:06:12.362Z,64.21
2022-08-28T02:21:54.676Z,64.19
2022-08-28T02:37:37.033Z,64.15
2022-08-28T02:53:19.116Z,64.13
2022-08-28T03:09:01.713Z,64.1
2022-08-28T03:24:44.584Z,64.08
2022-08-28T03:40:27.463Z,64.04
2022-08-28T03:56:10.166Z,64.01
2022-08-28T04:11:52.195Z,64
2022-08-28T04:27:34.241Z,63.97
2022-08-28T04:43:16.257Z,63.95
2022-08-28T04:58:58.595Z,63.93
2022-08-28T04:59:45.784Z,63.68
2022-08-28T05:15:27.790Z,63.82
2022-08-28T05:31:09.842Z,63.83
2022-08-28T05:46:52.278Z,63.82
2022-08-28T06:02:34.846Z,63.8
2022-08-28T06:18:17.601Z,63.78
2022-08-28T06:34:00.061Z,63.77
2022-08-28T07:05:24.799Z,63.74
2022-08-28T07:21:07.447Z,63.75
2022-08-28T07:36:50.211Z,63.88
2022-08-28T07:52:32.677Z,63.93
2022-08-28T08:08:15.469Z,62.86
2022-08-28T08:23:58.129Z,63.61
2022-08-28T08:39:40.484Z,63.75
2022-08-28T08:55:22.625Z,63.83
2022-08-28T09:11:05.318Z,63.86
2022-08-28T09:26:48.144Z,63.91
2022-08-28T09:42:30.529Z,63.95
2022-08-28T09:58:13.155Z,63.98
2022-08-28T10:13:55.519Z,64.03
2022-08-28T10:29:37.750Z,64.04
2022-08-28T10:45:20.427Z,64.05
2022-08-28T11:01:03.058Z,64.02
2022-08-28T11:16:45.959Z,64
2022-08-28T11:32:28.861Z,64.01
2022-08-28T11:48:11.294Z,63.99
2022-08-28T12:03:53.533Z,63.99
2022-08-28T12:19:36.393Z,64.03
2022-08-28T12:35:19.232Z,64.11
2022-08-28T12:51:01.194Z,64.13
2022-08-28T13:06:44.041Z,64.16
2022-08-28T13:22:26.745Z,64.14
2022-08-28T13:38:08.868Z,64.12
2022-08-28T13:53:51.769Z,64.22
2022-08-28T14:09:33.939Z,64.33
2022-08-28T14:25:16.340Z,64.28
2022-08-28T14:40:58.495Z,63.92
2022-08-28T14:56:40.427Z,63.58
2022-08-28T15:12:22.516Z,63.25
2022-08-28T15:28:04.742Z,62.95
2022-08-28T15:43:46.904Z,62.74
2022-08-28T15:59:29.012Z,62.66
2022-08-28T16:15:11.319Z,62.54
2022-08-28T16:30:53.962Z,62.43
2022-08-28T16:46:36.853Z,62.5
2022-08-28T17:02:19.596Z,62.7
2022-08-28T17:18:01.592Z,62.87
2022-08-28T17:33:44.066Z,63
2022-08-28T18:05:08.960Z,63.21
2022-08-28T18:20:51.666Z,63.27
2022-08-28T18:36:34.122Z,63.33
2022-08-28T18:52:16.398Z,63.36
2022-08-28T19:07:58.592Z,63.39
2022-08-28T19:23:41.143Z,63.41
2022-08-28T19:39:23.978Z,63.44
2022-08-28T19:55:06.422Z,63.44
2022-08-28T20:10:48.895Z,63.46
2022-08-28T20:26:31.719Z,63.46
2022-08-28T20:42:14.423Z,63.47
2022-08-28T20:57:57.166Z,63.48
2022-08-28T21:13:39.831Z,63.48
2022-08-28T21:29:22.626Z,63.5
2022-08-28T21:45:04.871Z,63.5
2022-08-28T22:00:47.297Z,63.5
2022-08-28T22:16:29.665Z,63.52
2022-08-28T22:32:11.805Z,63.53
2022-08-28T22:47:54.291Z,63.2
2022-08-28T23:03:36.550Z,63.36
2022-08-28T23:19:18.599Z,63.26
2022-08-28T23:35:01.245Z,63.2
2022-08-28T23:50:43.528Z,63.16
